Time;durP1;ratioP1;P1;durP2;ratioP2;P2;SDS_P1;SDS_P2;PMS_P1;PMS_P2;Temp;Humidity;BMP_temperature;BMP_pressure;BME280_temperature;BME280_humidity;BME280_pressure;Samples;Min_cycle;Max_cycle;Signal;HPM_P1;HPM_P2
2021/11/04 00:01:48;;;;;;;20.87;16.30;;;9.70;99.90;;;;;;5022060;28;20311;-71
2021/11/04 00:04:14;;;;;;;22.70;17.70;;;9.70;99.90;;;;;;5021885;28;20661;-71
2021/11/04 00:06:41;;;;;;;20.47;17.37;;;9.70;99.90;;;;;;5023868;28;20335;-71
2021/11/04 00:09:07;;;;;;;23.93;17.80;;;9.70;99.90;;;;;;5020866;28;20735;-71
2021/11/04 00:11:33;;;;;;;22.97;17.57;;;9.70;99.90;;;;;;5024400;28;20658;-71
2021/11/04 00:14:03;;;;;;;22.67;17.00;;;9.70;99.90;;;;;;5025637;28;20223;-72
2021/11/04 00:16:31;;;;;;;21.57;17.17;;;9.60;99.90;;;;;;5023758;28;20209;-72
2021/11/04 00:18:57;;;;;;;22.97;17.00;;;9.70;99.90;;;;;;5025194;28;20655;-71
2021/11/04 00:21:23;;;;;;;22.00;17.30;;;9.70;99.90;;;;;;5024059;28;21014;-72
2021/11/04 00:23:51;;;;;;;23.80;18.90;;;9.60;99.90;;;;;;5021333;28;20335;-72
2021/11/04 00:26:22;;;;;;;23.07;16.53;;;9.60;99.90;;;;;;5024161;28;20283;-73
2021/11/04 00:28:56;;;;;;;23.97;17.80;;;9.60;99.90;;;;;;5024243;28;20615;-71
2021/11/04 00:31:23;;;;;;;20.50;15.87;;;9.60;99.90;;;;;;4999319;28;20654;-70
2021/11/04 00:33:52;;;;;;;22.20;17.37;;;9.60;99.90;;;;;;5023126;28;20678;-73
2021/11/04 00:36:19;;;;;;;21.50;16.23;;;9.60;99.90;;;;;;5025799;28;20620;-72
2021/11/04 00:39:01;;;;;;;22.73;17.57;;;9.70;99.90;;;;;;5004691;28;20693;-73
2021/11/04 00:41:30;;;;;;;22.53;18.23;;;9.60;99.90;;;;;;5022461;28;21205;-72
2021/11/04 00:44:05;;;;;;;26.27;18.77;;;9.60;99.90;;;;;;5006725;28;21894;-72
2021/11/04 00:46:34;;;;;;;23.77;17.43;;;9.60;99.90;;;;;;5023840;28;20710;-72
2021/11/04 00:49:02;;;;;;;22.53;17.73;;;9.60;99.90;;;;;;5022966;28;20748;-72
2021/11/04 00:51:28;;;;;;;21.50;15.60;;;9.60;99.90;;;;;;5023308;28;20862;-71
2021/11/04 00:53:54;;;;;;;22.80;16.80;;;9.70;99.90;;;;;;5025033;28;20635;-71
2021/11/04 00:56:23;;;;;;;23.50;17.30;;;9.60;99.90;;;;;;5025216;28;20714;-71
2021/11/04 00:58:53;;;;;;;25.17;18.10;;;9.70;99.90;;;;;;5020888;28;20651;-71
2021/11/04 01:01:23;;;;;;;21.77;16.90;;;9.60;99.90;;;;;;5020727;28;20640;-71
2021/11/04 01:03:54;;;;;;;22.33;17.97;;;9.30;99.90;;;;;;5024861;28;20631;-72
2021/11/04 01:06:21;;;;;;;24.07;17.40;;;9.70;99.90;;;;;;5022538;28;20667;-72
2021/11/04 01:08:47;;;;;;;22.13;16.80;;;9.70;99.90;;;;;;5022598;28;20723;-73
2021/11/04 01:11:19;;;;;;;21.00;16.60;;;9.70;99.90;;;;;;5022307;28;20670;-71
2021/11/04 01:13:46;;;;;;;23.30;16.83;;;9.70;99.90;;;;;;5022400;28;20643;-73
2021/11/04 01:16:17;;;;;;;25.53;16.53;;;9.70;99.90;;;;;;5023949;28;20619;-72
2021/11/04 01:18:46;;;;;;;21.47;15.87;;;9.60;99.90;;;;;;5020554;28;20819;-71
2021/11/04 01:21:19;;;;;;;23.50;17.70;;;9.70;99.90;;;;;;5025795;28;20638;-71
2021/11/04 01:23:48;;;;;;;25.07;17.10;;;9.70;99.90;;;;;;5022758;28;20639;-71
2021/11/04 01:26:16;;;;;;;22.30;16.80;;;9.60;99.90;;;;;;5023800;28;20988;-72
2021/11/04 01:28:42;;;;;;;21.77;17.00;;;9.70;99.90;;;;;;5024081;28;20607;-72
2021/11/04 01:31:10;;;;;;;22.70;16.70;;;9.70;99.90;;;;;;5020544;28;21118;-72
2021/11/04 01:33:35;;;;;;;23.47;17.10;;;9.70;99.90;;;;;;5023738;28;20220;-75
2021/11/04 01:36:04;;;;;;;20.87;16.17;;;9.70;99.90;;;;;;5022680;28;20620;-71
2021/11/04 01:38:33;;;;;;;20.23;15.50;;;9.70;99.90;;;;;;5023116;28;20220;-72
2021/11/04 01:40:58;;;;;;;24.20;16.57;;;9.70;99.90;;;;;;5019512;28;21249;-72
2021/11/04 01:43:24;;;;;;;20.80;16.07;;;9.70;99.90;;;;;;5021796;28;20643;-71
2021/11/04 01:45:52;;;;;;;20.93;16.63;;;9.70;99.90;;;;;;5020568;28;20258;-71
2021/11/04 01:48:21;;;;;;;22.47;17.33;;;9.70;99.90;;;;;;5019302;28;20192;-72
2021/11/04 01:50:57;;;;;;;19.93;15.80;;;9.70;99.90;;;;;;5020117;28;20650;-71
2021/11/04 01:53:25;;;;;;;21.00;16.13;;;9.80;99.90;;;;;;5022605;28;20645;-71
2021/11/04 01:55:53;;;;;;;23.87;17.47;;;9.70;99.90;;;;;;5022472;28;20688;-71
2021/11/04 01:58:21;;;;;;;21.07;17.23;;;9.70;99.90;;;;;;5023739;28;20647;-71
2021/11/04 02:00:46;;;;;;;21.93;16.17;;;9.70;99.90;;;;;;5020920;28;20998;-71
2021/11/04 02:03:30;;;;;;;23.07;17.47;;;9.80;99.90;;;;;;5021893;28;20623;-71
2021/11/04 02:06:13;;;;;;;22.10;15.60;;;9.80;99.90;;;;;;5022978;28;20235;-71
2021/11/04 02:08:52;;;;;;;22.63;16.30;;;9.80;99.90;;;;;;5025077;28;20633;-71
2021/11/04 02:11:22;;;;;;;21.93;17.07;;;9.80;99.90;;;;;;5022574;28;20647;-71
2021/11/04 02:14:10;;;;;;;20.50;16.20;;;9.70;99.90;;;;;;5023056;28;20627;-72
2021/11/04 02:16:40;;;;;;;23.30;18.07;;;9.70;99.90;;;;;;5023248;28;20764;-71
2021/11/04 02:19:25;;;;;;;25.30;17.80;;;9.70;99.90;;;;;;5024052;28;20782;-72
2021/11/04 02:22:35;;;;;;;22.80;17.47;;;9.40;99.90;;;;;;5015649;28;21237;-71
2021/11/04 02:25:22;;;;;;;23.97;17.80;;;9.70;99.90;;;;;;5018642;28;21200;-73
2021/11/04 02:27:56;;;;;;;22.73;17.10;;;9.70;99.90;;;;;;5022037;28;20701;-71
2021/11/04 02:30:31;;;;;;;25.23;16.30;;;9.60;99.90;;;;;;5020940;28;21303;-71
2021/11/04 02:32:59;;;;;;;24.50;19.33;;;9.60;99.90;;;;;;5027359;28;20984;-71
2021/11/04 02:35:28;;;;;;;22.97;17.57;;;9.60;99.90;;;;;;5025632;28;20622;-71
2021/11/04 02:38:00;;;;;;;26.10;18.33;;;9.60;99.90;;;;;;5026119;28;20715;-71
2021/11/04 02:40:29;;;;;;;21.23;16.63;;;9.60;99.90;;;;;;5024480;28;20611;-72
2021/11/04 02:42:56;;;;;;;24.70;18.57;;;9.60;99.90;;;;;;5025269;28;20639;-71
2021/11/04 02:45:28;;;;;;;23.30;16.97;;;9.50;99.90;;;;;;5026974;28;20687;-71
2021/11/04 02:47:56;;;;;;;23.83;18.10;;;9.50;99.90;;;;;;5028842;28;20614;-71
2021/11/04 02:50:21;;;;;;;21.97;18.00;;;9.50;99.90;;;;;;5023967;28;20623;-71
2021/11/04 02:52:50;;;;;;;23.33;18.07;;;9.60;99.90;;;;;;5025477;28;20649;-73
2021/11/04 02:55:17;;;;;;;25.40;18.00;;;9.50;99.90;;;;;;5026135;28;20189;-73
2021/11/04 02:57:47;;;;;;;22.90;16.93;;;9.50;99.90;;;;;;5026370;28;21015;-71
2021/11/04 03:00:15;;;;;;;25.33;17.30;;;9.50;99.90;;;;;;5024023;28;21206;-73
2021/11/04 03:02:43;;;;;;;22.67;16.63;;;9.50;99.90;;;;;;5026886;28;20657;-71
2021/11/04 03:05:16;;;;;;;23.13;17.97;;;9.50;99.90;;;;;;5026320;28;20673;-75
2021/11/04 03:07:45;;;;;;;21.07;16.80;;;9.50;99.90;;;;;;5022494;28;20626;-74
2021/11/04 03:10:16;;;;;;;22.97;17.73;;;9.50;99.90;;;;;;5025392;28;20691;-72
2021/11/04 03:12:44;;;;;;;22.97;17.47;;;9.70;99.90;;;;;;5027803;28;20785;-71
2021/11/04 03:15:17;;;;;;;25.50;17.83;;;9.50;99.90;;;;;;5026369;28;20637;-71
2021/11/04 03:17:48;;;;;;;24.90;18.20;;;9.40;99.90;;;;;;5026489;28;20653;-73
2021/11/04 03:20:17;;;;;;;26.40;18.27;;;9.40;99.90;;;;;;5027257;28;20631;-73
2021/11/04 03:22:45;;;;;;;23.60;17.10;;;9.50;99.90;;;;;;5027745;28;20638;-72
2021/11/04 03:25:14;;;;;;;22.30;17.70;;;9.40;99.90;;;;;;5026650;28;20622;-71
2021/11/04 03:27:45;;;;;;;22.13;16.60;;;9.40;99.90;;;;;;5027138;28;20611;-72
2021/11/04 03:30:18;;;;;;;23.10;17.40;;;9.40;99.90;;;;;;5025584;28;20760;-71
2021/11/04 03:32:56;;;;;;;;;;;;;;;;;;;;;
2021/11/04 03:35:29;;;;;;;23.60;17.87;;;9.40;99.90;;;;;;5025056;28;20607;-71
2021/11/04 03:38:06;;;;;;;22.90;17.63;;;9.40;99.90;;;;;;5026859;28;21192;-73
2021/11/04 03:40:42;;;;;;;22.70;16.87;;;9.40;99.90;;;;;;5024077;28;20681;-72
2021/11/04 03:43:09;;;;;;;21.97;16.57;;;9.40;99.90;;;;;;5025921;28;20722;-73
2021/11/04 03:45:41;;;;;;;21.27;15.30;;;9.40;99.90;;;;;;5003184;28;20612;-72
2021/11/04 03:48:15;;;;;;;21.47;16.27;;;9.40;99.90;;;;;;5026397;28;20583;-73
2021/11/04 03:50:43;;;;;;;19.97;15.77;;;9.40;99.90;;;;;;5027164;28;20878;-73
2021/11/04 03:53:10;;;;;;;22.33;16.80;;;9.40;99.90;;;;;;5023973;28;21031;-73
2021/11/04 03:55:36;;;;;;;20.20;15.33;;;9.40;99.90;;;;;;5026447;28;20638;-73
2021/11/04 03:58:07;;;;;;;19.50;15.20;;;9.30;99.90;;;;;;5026524;28;20707;-71
2021/11/04 04:00:45;;;;;;;23.40;17.27;;;9.30;99.90;;;;;;5023116;28;20635;-72
2021/11/04 04:03:12;;;;;;;21.40;14.80;;;9.30;99.90;;;;;;5026475;28;20705;-73
2021/11/04 04:05:43;;;;;;;21.63;16.03;;;9.30;99.90;;;;;;5026209;28;20606;-71
2021/11/04 04:08:11;;;;;;;18.90;14.33;;;9.30;99.90;;;;;;5025722;28;20605;-73
2021/11/04 04:10:44;;;;;;;20.17;16.00;;;9.30;99.90;;;;;;5023162;28;21033;-72
2021/11/04 04:13:09;;;;;;;21.00;14.97;;;9.30;99.90;;;;;;5026609;28;20630;-73
2021/11/04 04:15:37;;;;;;;21.27;15.20;;;9.40;99.90;;;;;;5026245;28;20607;-72
2021/11/04 04:18:05;;;;;;;18.20;13.83;;;9.30;99.90;;;;;;5026415;28;20270;-71
2021/11/04 04:20:33;;;;;;;19.03;14.13;;;9.30;99.90;;;;;;5024495;28;20631;-71
2021/11/04 04:23:03;;;;;;;20.50;15.23;;;9.30;99.90;;;;;;5027826;28;20865;-71
2021/11/04 04:25:30;;;;;;;20.43;14.40;;;9.30;99.90;;;;;;5023897;28;20702;-71
2021/11/04 04:27:57;;;;;;;18.10;14.60;;;9.30;99.90;;;;;;5024832;28;20710;-72
2021/11/04 04:30:23;;;;;;;17.83;14.07;;;9.30;99.90;;;;;;5022507;28;20667;-71
2021/11/04 04:32:51;;;;;;;16.43;13.37;;;9.30;99.90;;;;;;5025800;28;21214;-71
2021/11/04 04:35:17;;;;;;;18.47;13.93;;;9.30;99.90;;;;;;5023377;28;20631;-71
2021/11/04 04:37:43;;;;;;;20.03;14.60;;;9.30;99.90;;;;;;5022779;28;20648;-71
2021/11/04 04:40:09;;;;;;;17.57;13.47;;;9.40;99.90;;;;;;5020561;28;20299;-71
2021/11/04 04:42:36;;;;;;;20.70;14.67;;;9.40;99.90;;;;;;5021762;28;20646;-73
2021/11/04 04:45:05;;;;;;;16.90;13.17;;;9.40;99.90;;;;;;5020183;28;20615;-71
2021/11/04 04:47:38;;;;;;;19.13;14.10;;;9.30;99.90;;;;;;5023413;28;20624;-73
2021/11/04 04:50:07;;;;;;;17.80;13.93;;;9.30;99.90;;;;;;5020767;28;20703;-73
2021/11/04 04:52:32;;;;;;;17.80;14.03;;;9.30;99.90;;;;;;5012917;28;20654;-71
2021/11/04 04:54:58;;;;;;;19.57;14.17;;;9.30;99.90;;;;;;5020774;28;20615;-71
2021/11/04 04:57:27;;;;;;;18.83;14.00;;;9.30;99.90;;;;;;5025529;28;20997;-71
2021/11/04 05:00:00;;;;;;;16.63;12.93;;;9.30;99.90;;;;;;5021804;28;20215;-72
2021/11/04 05:02:37;;;;;;;17.43;13.07;;;9.40;99.90;;;;;;5024618;28;20740;-73
2021/11/04 05:05:03;;;;;;;16.90;12.70;;;9.40;99.90;;;;;;5024219;28;21019;-73
2021/11/04 05:07:29;;;;;;;15.97;12.80;;;9.30;99.90;;;;;;5025200;28;20800;-73
2021/11/04 05:09:54;;;;;;;17.60;13.93;;;9.30;99.90;;;;;;5019228;28;20665;-75
2021/11/04 05:12:20;;;;;;;18.80;13.40;;;9.40;99.90;;;;;;5020666;28;20247;-73
2021/11/04 05:14:48;;;;;;;20.57;14.17;;;9.30;99.90;;;;;;5023392;28;20284;-72
2021/11/04 05:17:13;;;;;;;19.30;13.30;;;9.30;99.90;;;;;;5021382;28;20212;-72
2021/11/04 05:19:39;;;;;;;19.30;14.27;;;9.30;99.90;;;;;;5021588;28;21131;-75
2021/11/04 05:22:17;;;;;;;18.87;13.70;;;9.30;99.90;;;;;;5020155;28;20216;-73
2021/11/04 05:24:43;;;;;;;19.77;14.10;;;9.30;99.90;;;;;;5025115;28;20188;-72
2021/11/04 05:27:17;;;;;;;19.67;13.90;;;9.30;99.90;;;;;;5025317;28;20623;-72
2021/11/04 05:29:46;;;;;;;19.77;14.63;;;9.30;99.90;;;;;;5023055;28;20200;-71
2021/11/04 05:32:12;;;;;;;19.43;13.80;;;9.40;99.90;;;;;;5022451;28;20904;-71
2021/11/04 05:34:39;;;;;;;17.97;13.50;;;9.30;99.90;;;;;;5022191;28;20710;-72
2021/11/04 05:37:08;;;;;;;20.20;13.70;;;9.40;99.90;;;;;;5023619;28;20185;-72
2021/11/04 05:39:39;;;;;;;19.17;14.50;;;9.30;99.90;;;;;;5022432;28;20734;-72
2021/11/04 05:42:06;;;;;;;19.43;15.53;;;9.30;99.90;;;;;;5023625;28;20624;-71
2021/11/04 05:44:31;;;;;;;19.40;14.27;;;9.40;99.90;;;;;;5021398;28;20643;-71
2021/11/04 05:47:04;;;;;;;22.47;15.37;;;9.40;99.90;;;;;;5022770;28;20615;-72
2021/11/04 05:49:30;;;;;;;19.50;15.57;;;9.40;99.90;;;;;;5020945;28;20187;-70
2021/11/04 05:51:58;;;;;;;21.40;15.23;;;9.40;99.90;;;;;;5016829;28;20623;-71
2021/11/04 05:54:28;;;;;;;21.43;14.40;;;9.40;99.90;;;;;;5015326;28;20205;-72
2021/11/04 05:56:54;;;;;;;19.40;13.93;;;9.40;99.90;;;;;;5022320;28;20842;-71
2021/11/04 05:59:19;;;;;;;24.87;15.63;;;9.40;99.90;;;;;;5023740;28;21303;-69
2021/11/04 06:01:45;;;;;;;20.60;15.40;;;9.40;99.90;;;;;;5023337;28;20216;-72
2021/11/04 06:04:10;;;;;;;20.13;14.50;;;9.40;99.90;;;;;;5025152;28;20287;-73
2021/11/04 06:06:38;;;;;;;22.70;15.63;;;9.40;99.90;;;;;;5017668;28;20386;-72
2021/11/04 06:09:06;;;;;;;22.63;15.80;;;9.40;99.90;;;;;;5020190;28;20196;-72
2021/11/04 06:11:32;;;;;;;21.10;15.60;;;9.40;99.90;;;;;;5021370;28;20734;-73
2021/11/04 06:14:10;;;;;;;23.57;15.87;;;9.40;99.90;;;;;;5022196;28;20828;-72
2021/11/04 06:16:38;;;;;;;25.27;15.67;;;9.40;99.90;;;;;;5026548;28;20200;-70
2021/11/04 06:19:14;;;;;;;20.97;15.00;;;9.40;99.90;;;;;;5023667;28;20635;-72
2021/11/04 06:21:39;;;;;;;21.43;15.63;;;9.40;99.90;;;;;;5022104;28;21336;-70
2021/11/04 06:24:05;;;;;;;23.60;15.80;;;9.40;99.90;;;;;;5024196;28;20731;-72
2021/11/04 06:26:31;;;;;;;23.20;15.20;;;9.40;99.90;;;;;;5020818;28;20497;-71
2021/11/04 06:28:56;;;;;;;19.10;15.10;;;9.50;99.90;;;;;;5014842;28;20254;-71
2021/11/04 06:31:22;;;;;;;21.23;15.20;;;9.50;99.90;;;;;;5011808;28;20662;-72
2021/11/04 06:33:50;;;;;;;19.03;14.83;;;9.50;99.90;;;;;;5012650;28;20204;-73
2021/11/04 06:36:15;;;;;;;22.57;15.80;;;9.50;99.90;;;;;;5016740;28;20313;-73
2021/11/04 06:38:41;;;;;;;20.57;14.30;;;9.40;99.90;;;;;;5020836;28;20775;-73
2021/11/04 06:41:07;;;;;;;22.23;15.03;;;9.50;99.90;;;;;;5021944;28;20358;-73
2021/11/04 06:43:32;;;;;;;19.43;13.63;;;9.50;99.90;;;;;;5022570;28;20216;-73
2021/11/04 06:46:01;;;;;;;21.10;15.70;;;9.40;99.90;;;;;;5022946;28;20243;-72
2021/11/04 06:48:43;;;;;;;19.53;14.70;;;9.50;99.90;;;;;;5025306;28;20212;-73
2021/11/04 06:51:17;;;;;;;23.73;15.80;;;9.50;99.90;;;;;;5022604;28;20659;-73
2021/11/04 06:53:45;;;;;;;22.03;15.60;;;9.50;99.90;;;;;;5018257;28;21022;-73
2021/11/04 06:56:11;;;;;;;21.00;15.13;;;9.50;99.90;;;;;;5020537;28;20677;-73
2021/11/04 06:58:38;;;;;;;20.63;14.53;;;9.50;99.90;;;;;;5022419;28;20686;-73
2021/11/04 07:01:13;;;;;;;22.33;16.60;;;9.50;99.90;;;;;;5018026;28;20658;-72
2021/11/04 07:03:46;;;;;;;21.17;15.27;;;9.50;99.90;;;;;;5022736;28;21175;-72
2021/11/04 07:06:17;;;;;;;22.37;16.70;;;9.50;99.90;;;;;;5022959;28;20727;-73
2021/11/04 07:08:44;;;;;;;20.57;15.07;;;9.50;99.90;;;;;;5022076;28;20620;-73
2021/11/04 07:11:10;;;;;;;23.77;15.93;;;9.50;99.90;;;;;;5020330;28;20700;-73
2021/11/04 07:13:36;;;;;;;22.67;15.60;;;9.40;99.90;;;;;;4994165;28;20644;-73
2021/11/04 07:16:03;;;;;;;21.43;15.83;;;9.50;99.90;;;;;;5021688;28;20192;-73
2021/11/04 07:18:29;;;;;;;21.60;16.63;;;9.40;99.90;;;;;;5021171;28;20718;-73
2021/11/04 07:21:04;;;;;;;21.80;16.10;;;9.50;99.90;;;;;;5023682;28;21319;-72
2021/11/04 07:23:51;;;;;;;20.90;16.13;;;9.50;99.90;;;;;;5023512;28;21174;-72
2021/11/04 07:26:20;;;;;;;25.73;17.40;;;9.40;99.90;;;;;;5023921;28;20698;-74
2021/11/04 07:28:53;;;;;;;19.67;15.30;;;9.50;99.90;;;;;;5022366;28;20910;-73
2021/11/04 07:31:25;;;;;;;21.07;14.80;;;9.50;99.90;;;;;;5024134;28;20743;-75
2021/11/04 07:33:51;;;;;;;19.10;13.60;;;9.50;99.90;;;;;;5027083;28;20678;-72
2021/11/04 07:36:19;;;;;;;22.50;15.40;;;9.50;99.90;;;;;;5025095;28;20630;-73
2021/11/04 07:38:47;;;;;;;19.77;14.83;;;9.40;99.90;;;;;;5024067;28;20213;-73
2021/11/04 07:41:13;;;;;;;21.87;14.60;;;9.40;99.90;;;;;;5025809;28;20998;-71
2021/11/04 07:43:39;;;;;;;21.50;15.17;;;9.40;99.90;;;;;;5025994;28;20643;-73
2021/11/04 07:46:05;;;;;;;18.90;13.60;;;9.40;99.90;;;;;;5026703;28;21012;-73
2021/11/04 07:48:31;;;;;;;19.50;14.87;;;9.50;99.90;;;;;;5024301;28;20603;-72
2021/11/04 07:50:58;;;;;;;19.90;14.73;;;9.50;99.90;;;;;;5020925;28;20631;-73
2021/11/04 07:53:24;;;;;;;19.10;13.40;;;9.50;99.90;;;;;;5021004;28;20240;-72
2021/11/04 07:55:51;;;;;;;18.10;13.10;;;9.50;99.90;;;;;;5022489;28;20710;-75
2021/11/04 07:58:17;;;;;;;18.77;13.50;;;9.50;99.90;;;;;;5020992;28;21233;-78
2021/11/04 08:00:43;;;;;;;15.53;11.40;;;9.50;99.90;;;;;;5025511;28;20702;-71
2021/11/04 08:03:09;;;;;;;16.33;10.90;;;9.50;99.90;;;;;;5027151;28;20269;-71
2021/11/04 08:05:35;;;;;;;16.13;11.70;;;9.50;99.90;;;;;;5024649;28;20718;-71
2021/11/04 08:08:01;;;;;;;15.40;12.27;;;9.50;99.90;;;;;;5021138;28;20619;-72
2021/11/04 08:10:27;;;;;;;16.63;12.47;;;9.40;99.90;;;;;;5019983;28;20656;-73
2021/11/04 08:12:52;;;;;;;16.00;11.50;;;9.40;99.90;;;;;;5023155;28;20216;-72
2021/11/04 08:15:18;;;;;;;17.37;11.83;;;9.50;99.90;;;;;;5024561;28;20270;-72
2021/11/04 08:17:44;;;;;;;14.37;11.10;;;9.50;99.90;;;;;;5024730;28;20307;-71
2021/11/04 08:20:10;;;;;;;16.50;11.30;;;9.50;99.90;;;;;;5023477;28;20181;-72
2021/11/04 08:22:36;;;;;;;13.50;10.33;;;9.50;99.90;;;;;;5023341;28;20204;-73
2021/11/04 08:25:05;;;;;;;15.40;10.97;;;9.60;99.90;;;;;;5023905;28;20707;-72
2021/11/04 08:27:32;;;;;;;15.13;10.67;;;9.60;99.90;;;;;;5024532;28;20610;-74
2021/11/04 08:30:01;;;;;;;15.00;11.00;;;9.60;99.90;;;;;;5022435;28;20733;-71
2021/11/04 08:32:27;;;;;;;13.70;10.67;;;9.60;99.90;;;;;;5022938;28;20669;-72
2021/11/04 08:34:53;;;;;;;14.30;10.07;;;9.60;99.90;;;;;;5025080;28;20611;-72
2021/11/04 08:37:18;;;;;;;13.63;9.40;;;9.60;99.90;;;;;;5023411;28;20642;-72
2021/11/04 08:39:44;;;;;;;12.23;9.17;;;9.60;99.90;;;;;;5024921;28;20822;-76
2021/11/04 08:42:12;;;;;;;13.67;10.33;;;9.70;99.90;;;;;;5024925;28;20220;-72
2021/11/04 08:44:38;;;;;;;13.10;9.77;;;9.70;99.90;;;;;;5023629;28;20354;-75
2021/11/04 08:47:06;;;;;;;13.10;9.67;;;9.70;99.90;;;;;;5024324;28;21156;-74
2021/11/04 08:49:32;;;;;;;10.40;8.60;;;9.70;99.90;;;;;;5027094;28;20188;-73
2021/11/04 08:51:57;;;;;;;13.63;9.60;;;9.70;99.90;;;;;;5022610;28;20959;-73
2021/11/04 08:54:25;;;;;;;12.50;9.27;;;9.70;99.90;;;;;;5025265;28;20623;-72
2021/11/04 08:56:51;;;;;;;13.30;9.43;;;9.70;99.90;;;;;;5023802;28;20181;-73
2021/11/04 08:59:18;;;;;;;14.37;10.17;;;9.70;99.90;;;;;;5023243;28;20658;-72
2021/11/04 09:01:44;;;;;;;12.50;9.90;;;9.70;99.90;;;;;;5021545;28;20631;-72
2021/11/04 09:04:14;;;;;;;13.40;10.40;;;9.70;99.90;;;;;;5022316;28;20704;-72
2021/11/04 09:06:40;;;;;;;9.87;7.90;;;9.70;99.90;;;;;;5025268;28;20750;-72
2021/11/04 09:09:08;;;;;;;11.13;8.90;;;9.70;99.90;;;;;;5024297;28;20603;-71
2021/11/04 09:11:34;;;;;;;10.13;8.30;;;9.70;99.90;;;;;;5023821;28;20643;-73
2021/11/04 09:13:59;;;;;;;9.53;7.70;;;9.70;99.90;;;;;;5023013;28;21205;-74
2021/11/04 09:16:26;;;;;;;10.23;8.37;;;9.70;99.90;;;;;;5022540;28;20628;-72
2021/11/04 09:18:53;;;;;;;10.10;8.00;;;9.70;99.90;;;;;;5022347;28;20203;-73
2021/11/04 09:21:19;;;;;;;9.73;7.37;;;9.70;99.90;;;;;;5022710;28;21009;-72
2021/11/04 09:23:45;;;;;;;9.33;7.50;;;9.80;99.90;;;;;;5023789;28;20647;-73
2021/11/04 09:26:10;;;;;;;8.93;7.23;;;9.80;99.90;;;;;;5024489;28;20611;-72
2021/11/04 09:28:36;;;;;;;10.10;7.17;;;9.80;99.90;;;;;;5026052;28;20385;-73
2021/11/04 09:31:02;;;;;;;10.13;6.83;;;9.90;99.90;;;;;;5021451;28;20358;-72
2021/11/04 09:33:27;;;;;;;8.57;7.50;;;9.90;99.90;;;;;;5024477;28;20316;-72
2021/11/04 09:35:53;;;;;;;9.40;7.27;;;9.90;99.90;;;;;;5024138;28;20258;-72
2021/11/04 09:38:18;;;;;;;9.77;7.03;;;9.90;99.90;;;;;;5024276;28;20599;-73
2021/11/04 09:40:44;;;;;;;8.67;6.90;;;9.90;99.90;;;;;;5019900;28;21130;-72
2021/11/04 09:43:12;;;;;;;7.23;6.53;;;9.90;99.90;;;;;;5023479;28;20292;-72
2021/11/04 09:45:38;;;;;;;10.23;7.10;;;9.90;99.90;;;;;;5024296;28;20185;-73
2021/11/04 09:48:04;;;;;;;7.50;6.70;;;10.00;99.90;;;;;;5023340;28;20611;-72
2021/11/04 09:50:29;;;;;;;9.47;6.80;;;10.00;99.90;;;;;;5021021;28;20228;-72
2021/11/04 09:52:55;;;;;;;8.87;7.23;;;10.00;99.90;;;;;;5020765;28;20219;-73
2021/11/04 09:55:29;;;;;;;8.87;7.93;;;10.00;99.90;;;;;;5022305;28;20220;-73
2021/11/04 09:57:58;;;;;;;8.23;6.50;;;10.00;99.90;;;;;;5025198;28;20925;-72
2021/11/04 10:00:41;;;;;;;8.20;6.93;;;10.10;99.90;;;;;;5020256;28;20682;-73
2021/11/04 10:03:13;;;;;;;9.70;7.30;;;10.10;99.90;;;;;;5020566;28;20669;-73
2021/11/04 10:05:47;;;;;;;9.50;7.43;;;10.10;99.90;;;;;;5019697;28;20989;-74
2021/11/04 10:08:15;;;;;;;10.63;8.30;;;10.10;99.90;;;;;;5020850;28;20634;-73
2021/11/04 10:10:45;;;;;;;11.00;7.90;;;10.10;99.90;;;;;;5018278;28;20654;-73
2021/11/04 10:13:12;;;;;;;10.60;7.67;;;10.10;99.90;;;;;;5023857;28;20643;-73
2021/11/04 10:15:40;;;;;;;11.20;8.37;;;10.20;99.90;;;;;;5018386;28;20691;-73
2021/11/04 10:18:20;;;;;;;13.03;9.23;;;10.10;99.90;;;;;;5023552;28;20651;-72
2021/11/04 10:21:00;;;;;;;11.70;8.87;;;10.20;99.90;;;;;;5017535;28;20926;-72
2021/11/04 10:23:34;;;;;;;13.27;9.27;;;10.20;99.90;;;;;;5021031;28;20658;-72
2021/11/04 10:26:04;;;;;;;11.00;8.73;;;10.20;99.90;;;;;;5024007;28;20998;-73
2021/11/04 10:28:32;;;;;;;11.23;9.03;;;10.20;99.90;;;;;;5020055;28;20703;-73
2021/11/04 10:30:59;;;;;;;10.67;8.70;;;10.20;99.90;;;;;;5019982;28;20646;-72
2021/11/04 10:33:31;;;;;;;11.03;8.93;;;10.20;99.90;;;;;;5022010;28;20647;-72
2021/11/04 10:36:17;;;;;;;13.30;9.37;;;10.30;99.90;;;;;;5023126;28;20642;-72
2021/11/04 10:38:57;;;;;;;14.20;9.93;;;10.30;99.90;;;;;;5023456;28;20794;-72
2021/11/04 10:41:32;;;;;;;12.93;9.73;;;10.20;99.90;;;;;;5020405;28;20639;-73
2021/11/04 10:44:12;;;;;;;13.80;10.33;;;10.20;99.90;;;;;;5022959;28;20650;-72
2021/11/04 10:46:45;;;;;;;12.97;10.10;;;10.20;99.90;;;;;;5018932;28;20952;-73
2021/11/04 10:49:11;;;;;;;16.23;10.50;;;10.20;99.90;;;;;;5021268;28;20639;-72
2021/11/04 10:51:37;;;;;;;13.43;10.40;;;10.20;99.90;;;;;;5018999;28;20647;-73
2021/11/04 10:54:05;;;;;;;14.00;10.70;;;10.20;99.90;;;;;;5001964;28;21211;-72
2021/11/04 10:56:36;;;;;;;12.73;9.73;;;10.20;99.90;;;;;;5022177;28;20749;-72
2021/11/04 10:59:09;;;;;;;14.17;10.50;;;10.20;99.90;;;;;;5024557;28;20618;-74
2021/11/04 11:01:36;;;;;;;14.20;10.57;;;10.20;99.90;;;;;;5020150;28;20639;-73
2021/11/04 11:04:07;;;;;;;16.10;12.07;;;10.20;99.90;;;;;;5019821;28;20699;-72
2021/11/04 11:06:46;;;;;;;12.73;10.63;;;9.90;99.90;;;;;;5023906;28;20603;-73
2021/11/04 11:09:23;;;;;;;13.60;10.60;;;10.20;99.90;;;;;;5024834;28;20630;-73
2021/11/04 11:11:52;;;;;;;14.73;11.47;;;10.20;99.90;;;;;;5023192;28;20696;-72
2021/11/04 11:14:19;;;;;;;14.50;11.40;;;10.20;99.90;;;;;;4998713;28;20647;-72
2021/11/04 11:16:53;;;;;;;15.97;11.23;;;10.30;99.90;;;;;;5025444;28;20611;-72
2021/11/04 11:19:39;;;;;;;15.50;11.80;;;10.20;99.90;;;;;;5024422;28;20671;-72
2021/11/04 11:22:06;;;;;;;14.73;10.80;;;10.20;99.90;;;;;;5025249;28;20640;-72
2021/11/04 11:24:36;;;;;;;18.10;11.37;;;9.90;99.90;;;;;;5026288;28;20793;-71
2021/11/04 11:27:12;;;;;;;15.07;11.57;;;10.30;99.90;;;;;;5023490;28;20615;-72
2021/11/04 11:29:40;;;;;;;16.60;12.30;;;10.30;99.90;;;;;;5025680;28;20714;-72
2021/11/04 11:32:28;;;;;;;12.70;10.93;;;10.30;99.90;;;;;;5025240;28;20769;-72
2021/11/04 11:35:19;;;;;;;17.40;12.40;;;10.30;99.90;;;;;;5025583;28;20637;-73
2021/11/04 11:38:00;;;;;;;13.50;11.37;;;10.30;99.90;;;;;;5023117;28;20796;-72
2021/11/04 11:40:27;;;;;;;14.63;11.67;;;10.30;99.90;;;;;;5021509;28;20642;-74
2021/11/04 11:42:56;;;;;;;14.33;12.10;;;10.30;99.90;;;;;;5026634;28;20639;-73
2021/11/04 11:45:22;;;;;;;15.23;12.93;;;10.30;99.90;;;;;;5026275;28;20600;-72
2021/11/04 11:47:48;;;;;;;15.73;12.83;;;10.30;99.90;;;;;;5025278;28;20665;-73
2021/11/04 11:50:32;;;;;;;14.13;11.33;;;10.30;99.90;;;;;;5025903;28;20300;-73
2021/11/04 11:53:18;;;;;;;13.70;12.07;;;10.30;99.90;;;;;;5024156;28;20208;-72
2021/11/04 11:55:47;;;;;;;15.63;11.50;;;10.40;99.90;;;;;;5023423;28;20611;-72
2021/11/04 11:58:32;;;;;;;14.30;11.70;;;10.30;99.90;;;;;;5024673;28;20639;-72
2021/11/04 12:01:04;;;;;;;15.20;11.50;;;10.30;99.90;;;;;;5019551;28;21173;-73
2021/11/04 12:03:35;;;;;;;12.20;10.13;;;10.30;99.90;;;;;;5022843;28;20707;-72
2021/11/04 12:06:05;;;;;;;10.77;9.67;;;10.30;99.90;;;;;;5025408;28;20595;-72
2021/11/04 12:08:46;;;;;;;10.90;9.80;;;10.30;99.90;;;;;;5021254;28;20711;-73
2021/11/04 12:11:34;;;;;;;11.53;9.10;;;10.30;99.90;;;;;;5022567;28;20777;-73
2021/11/04 12:14:20;;;;;;;10.27;8.70;;;10.30;99.90;;;;;;5022143;28;21065;-72
2021/11/04 12:17:04;;;;;;;11.10;8.77;;;10.30;99.90;;;;;;5018051;28;20616;-70
2021/11/04 12:20:00;;;;;;;11.27;8.93;;;10.30;99.90;;;;;;5023202;28;20647;-75
2021/11/04 12:22:27;;;;;;;11.20;8.87;;;10.30;99.90;;;;;;5009771;28;20725;-72
2021/11/04 12:24:55;;;;;;;11.87;9.20;;;10.30;99.90;;;;;;5026131;28;20610;-70
2021/11/04 12:27:21;;;;;;;13.03;9.13;;;10.40;99.90;;;;;;5023022;28;20613;-70
2021/11/04 12:29:49;;;;;;;12.67;9.73;;;10.50;99.90;;;;;;5022435;28;20607;-72
2021/11/04 12:32:16;;;;;;;11.30;9.27;;;10.30;99.90;;;;;;5020811;28;21203;-71
2021/11/04 12:34:55;;;;;;;11.50;9.20;;;10.30;99.90;;;;;;5018074;28;20611;-71
2021/11/04 12:37:25;;;;;;;10.70;8.97;;;10.40;99.90;;;;;;5018999;28;20707;-70
2021/11/04 12:39:51;;;;;;;11.20;9.03;;;10.40;99.90;;;;;;5025516;28;20708;-71
2021/11/04 12:42:17;;;;;;;10.33;9.20;;;10.50;99.90;;;;;;5021241;28;20735;-70
2021/11/04 12:44:46;;;;;;;12.80;9.80;;;10.50;99.90;;;;;;5025029;28;20181;-70
2021/11/04 12:47:19;;;;;;;12.50;10.70;;;10.50;99.90;;;;;;5027218;28;20744;-71
2021/11/04 12:49:45;;;;;;;11.70;9.97;;;10.50;99.90;;;;;;5024489;28;20572;-74
2021/11/04 12:52:12;;;;;;;10.93;9.03;;;10.50;99.90;;;;;;5021501;28;20689;-71